sensor_id;sensor_type;location;lat;lon;timestamp;pressure;altitude;pressure_sealevel;temperature;humidity
11856;BME280;5987;53.140;8.904;2024-03-07T00:00:59;103150.66;;;0.70;100.00
11856;BME280;5987;53.140;8.904;2024-03-07T00:04:04;103161.63;;;0.64;100.00
11856;BME280;5987;53.140;8.904;2024-03-07T00:07:08;103171.09;;;0.64;100.00
11856;BME280;5987;53.140;8.904;2024-03-07T00:10:12;103171.66;;;0.57;100.00
11856;BME280;5987;53.140;8.904;2024-03-07T00:13:18;103180.22;;;0.56;100.00
11856;BME280;5987;53.140;8.904;2024-03-07T00:16:22;103177.53;;;0.53;100.00
11856;BME280;5987;53.140;8.904;2024-03-07T00:19:27;103185.84;;;0.45;100.00
11856;BME280;5987;53.140;8.904;2024-03-07T00:22:32;103183.66;;;0.35;100.00
11856;BME280;5987;53.140;8.904;2024-03-07T00:25:35;103195.44;;;0.28;100.00
11856;BME280;5987;53.140;8.904;2024-03-07T00:28:40;103199.94;;;0.32;100.00
11856;BME280;5987;53.140;8.904;2024-03-07T00:31:45;103206.56;;;0.27;100.00
11856;BME280;5987;53.140;8.904;2024-03-07T00:34:50;103210.72;;;0.24;100.00
11856;BME280;5987;53.140;8.904;2024-03-07T00:37:54;103219.13;;;0.20;100.00
11856;BME280;5987;53.140;8.904;2024-03-07T00:40:58;103231.78;;;0.13;100.00
11856;BME280;5987;53.140;8.904;2024-03-07T00:44:03;103236.81;;;0.10;100.00
11856;BME280;5987;53.140;8.904;2024-03-07T00:47:06;103238.44;;;0.08;100.00
11856;BME280;5987;53.140;8.904;2024-03-07T00:50:12;103239.13;;;0.04;100.00
11856;BME280;5987;53.140;8.904;2024-03-07T00:53:16;103248.66;;;-0.13;100.00
11856;BME280;5987;53.140;8.904;2024-03-07T00:56:20;103257.53;;;-0.08;100.00
11856;BME280;5987;53.140;8.904;2024-03-07T00:59:24;103255.25;;;-0.20;100.00
11856;BME280;5987;53.140;8.904;2024-03-07T01:02:28;103260.84;;;-0.10;100.00
11856;BME280;5987;53.140;8.904;2024-03-07T01:05:33;103264.19;;;-0.31;100.00
11856;BME280;5987;53.140;8.904;2024-03-07T01:08:38;103272.22;;;-0.25;100.00
11856;BME280;5987;53.140;8.904;2024-03-07T01:11:44;103267.66;;;-0.30;100.00
11856;BME280;5987;53.140;8.904;2024-03-07T01:14:48;103279.00;;;-0.27;100.00
11856;BME280;5987;53.140;8.904;2024-03-07T01:17:52;103280.84;;;-0.24;100.00
11856;BME280;5987;53.140;8.904;2024-03-07T01:20:57;103296.25;;;-0.26;100.00
11856;BME280;5987;53.140;8.904;2024-03-07T01:24:01;103292.59;;;-0.31;100.00
11856;BME280;5987;53.140;8.904;2024-03-07T01:27:06;103299.22;;;-0.36;100.00
11856;BME280;5987;53.140;8.904;2024-03-07T01:30:11;103307.03;;;-0.35;100.00
11856;BME280;5987;53.140;8.904;2024-03-07T01:33:15;103298.75;;;-0.45;100.00
11856;BME280;5987;53.140;8.904;2024-03-07T01:36:21;103299.66;;;-0.63;100.00
11856;BME280;5987;53.140;8.904;2024-03-07T01:39:24;103315.28;;;-0.60;100.00
11856;BME280;5987;53.140;8.904;2024-03-07T01:42:28;103326.53;;;-0.58;100.00
11856;BME280;5987;53.140;8.904;2024-03-07T01:45:32;103338.91;;;-0.52;100.00
11856;BME280;5987;53.140;8.904;2024-03-07T01:48:38;103343.81;;;-0.57;100.00
11856;BME280;5987;53.140;8.904;2024-03-07T01:51:44;103373.81;;;-0.59;100.00
11856;BME280;5987;53.140;8.904;2024-03-07T01:54:49;103381.13;;;-0.50;100.00
11856;BME280;5987;53.140;8.904;2024-03-07T01:57:55;103397.75;;;-0.45;100.00
11856;BME280;5987;53.140;8.904;2024-03-07T02:01:00;103413.53;;;-0.39;100.00
11856;BME280;5987;53.140;8.904;2024-03-07T02:04:04;103435.88;;;-0.39;100.00
11856;BME280;5987;53.140;8.904;2024-03-07T02:07:10;103448.59;;;-0.42;100.00
11856;BME280;5987;53.140;8.904;2024-03-07T02:10:14;103480.06;;;-0.33;100.00
11856;BME280;5987;53.140;8.904;2024-03-07T02:13:18;103508.22;;;-0.38;100.00
11856;BME280;5987;53.140;8.904;2024-03-07T02:16:22;103546.78;;;-0.41;100.00
11856;BME280;5987;53.140;8.904;2024-03-07T02:19:26;103587.75;;;-0.30;100.00
11856;BME280;5987;53.140;8.904;2024-03-07T02:22:31;103635.09;;;-0.30;100.00
11856;BME280;5987;53.140;8.904;2024-03-07T02:25:35;103673.34;;;-0.23;100.00
11856;BME280;5987;53.140;8.904;2024-03-07T02:28:40;103719.19;;;-0.19;100.00
11856;BME280;5987;53.140;8.904;2024-03-07T02:31:43;103755.19;;;-0.22;100.00
11856;BME280;5987;53.140;8.904;2024-03-07T02:34:48;103801.03;;;-0.18;100.00
11856;BME280;5987;53.140;8.904;2024-03-07T02:37:53;103848.50;;;-0.15;100.00
11856;BME280;5987;53.140;8.904;2024-03-07T02:40:57;103903.94;;;-0.09;100.00
11856;BME280;5987;53.140;8.904;2024-03-07T02:44:01;103938.16;;;-0.13;100.00
11856;BME280;5987;53.140;8.904;2024-03-07T02:47:06;103981.34;;;-0.10;100.00
11856;BME280;5987;53.140;8.904;2024-03-07T02:50:10;104030.44;;;0.05;100.00
11856;BME280;5987;53.140;8.904;2024-03-07T02:53:16;104059.75;;;0.05;100.00
11856;BME280;5987;53.140;8.904;2024-03-07T02:56:20;104084.59;;;0.03;100.00
11856;BME280;5987;53.140;8.904;2024-03-07T02:59:23;104126.38;;;0.11;100.00
11856;BME280;5987;53.140;8.904;2024-03-07T03:02:27;104157.88;;;0.19;100.00
11856;BME280;5987;53.140;8.904;2024-03-07T03:05:31;104177.34;;;0.13;100.00
11856;BME280;5987;53.140;8.904;2024-03-07T03:08:36;104207.75;;;0.17;100.00
11856;BME280;5987;53.140;8.904;2024-03-07T03:11:40;104233.78;;;0.21;100.00
11856;BME280;5987;53.140;8.904;2024-03-07T03:14:44;104277.97;;;0.25;100.00
11856;BME280;5987;53.140;8.904;2024-03-07T03:17:48;104305.53;;;0.25;100.00
11856;BME280;5987;53.140;8.904;2024-03-07T03:20:52;104323.19;;;0.32;100.00
11856;BME280;5987;53.140;8.904;2024-03-07T03:23:57;104348.16;;;0.31;100.00
11856;BME280;5987;53.140;8.904;2024-03-07T03:27:01;104377.66;;;0.35;100.00
11856;BME280;5987;53.140;8.904;2024-03-07T03:30:07;104393.41;;;0.38;100.00
11856;BME280;5987;53.140;8.904;2024-03-07T03:33:15;104418.72;;;0.44;100.00
11856;BME280;5987;53.140;8.904;2024-03-07T03:36:20;104446.75;;;0.51;100.00
11856;BME280;5987;53.140;8.904;2024-03-07T03:39:25;104464.94;;;0.53;100.00
11856;BME280;5987;53.140;8.904;2024-03-07T03:42:29;104483.06;;;0.53;100.00
11856;BME280;5987;53.140;8.904;2024-03-07T03:45:33;104502.03;;;0.53;100.00
11856;BME280;5987;53.140;8.904;2024-03-07T03:48:38;104532.97;;;0.51;100.00
11856;BME280;5987;53.140;8.904;2024-03-07T03:51:42;104554.84;;;0.57;100.00
11856;BME280;5987;53.140;8.904;2024-03-07T03:54:50;104570.38;;;0.57;100.00
11856;BME280;5987;53.140;8.904;2024-03-07T03:57:54;104608.06;;;0.66;100.00
11856;BME280;5987;53.140;8.904;2024-03-07T04:00:58;104616.91;;;0.57;100.00
11856;BME280;5987;53.140;8.904;2024-03-07T04:04:02;104642.47;;;0.65;100.00
11856;BME280;5987;53.140;8.904;2024-03-07T04:07:07;104659.19;;;0.57;100.00
11856;BME280;5987;53.140;8.904;2024-03-07T04:10:16;104672.22;;;0.59;100.00
11856;BME280;5987;53.140;8.904;2024-03-07T04:13:20;104693.31;;;0.65;100.00
11856;BME280;5987;53.140;8.904;2024-03-07T04:16:24;104703.81;;;0.55;100.00
11856;BME280;5987;53.140;8.904;2024-03-07T04:19:29;104732.03;;;0.63;100.00
11856;BME280;5987;53.140;8.904;2024-03-07T04:22:33;104753.81;;;0.67;100.00
11856;BME280;5987;53.140;8.904;2024-03-07T04:25:39;104773.13;;;0.72;100.00
11856;BME280;5987;53.140;8.904;2024-03-07T04:28:43;104783.47;;;0.72;100.00
11856;BME280;5987;53.140;8.904;2024-03-07T04:31:47;104816.34;;;0.87;100.00
11856;BME280;5987;53.140;8.904;2024-03-07T04:34:52;104810.66;;;0.79;100.00
11856;BME280;5987;53.140;8.904;2024-03-07T04:37:56;104820.78;;;0.76;100.00
11856;BME280;5987;53.140;8.904;2024-03-07T04:41:01;104845.28;;;0.81;100.00
11856;BME280;5987;53.140;8.904;2024-03-07T04:44:06;104848.53;;;0.78;100.00
11856;BME280;5987;53.140;8.904;2024-03-07T04:47:09;104876.22;;;0.79;100.00
11856;BME280;5987;53.140;8.904;2024-03-07T04:50:14;104880.38;;;0.77;100.00
11856;BME280;5987;53.140;8.904;2024-03-07T04:53:21;104906.13;;;0.88;100.00
11856;BME280;5987;53.140;8.904;2024-03-07T04:56:26;104912.47;;;0.93;100.00
11856;BME280;5987;53.140;8.904;2024-03-07T04:59:30;104921.88;;;1.04;100.00
11856;BME280;5987;53.140;8.904;2024-03-07T05:02:34;104929.31;;;1.11;100.00
11856;BME280;5987;53.140;8.904;2024-03-07T05:05:38;104933.56;;;1.11;100.00
11856;BME280;5987;53.140;8.904;2024-03-07T05:08:43;104932.09;;;1.14;100.00
11856;BME280;5987;53.140;8.904;2024-03-07T05:11:52;104930.97;;;1.11;100.00
11856;BME280;5987;53.140;8.904;2024-03-07T05:14:56;104947.25;;;1.22;100.00
11856;BME280;5987;53.140;8.904;2024-03-07T05:18:00;104948.16;;;1.22;100.00
11856;BME280;5987;53.140;8.904;2024-03-07T05:21:05;104951.97;;;1.27;100.00
11856;BME280;5987;53.140;8.904;2024-03-07T05:24:22;104951.75;;;1.24;100.00
11856;BME280;5987;53.140;8.904;2024-03-07T05:27:27;104948.59;;;1.28;100.00
11856;BME280;5987;53.140;8.904;2024-03-07T05:30:32;104970.13;;;1.41;100.00
11856;BME280;5987;53.140;8.904;2024-03-07T05:33:36;104968.56;;;1.43;100.00
11856;BME280;5987;53.140;8.904;2024-03-07T05:36:41;104953.91;;;1.43;100.00
11856;BME280;5987;53.140;8.904;2024-03-07T05:39:47;104938.94;;;1.39;100.00
11856;BME280;5987;53.140;8.904;2024-03-07T05:42:53;104946.22;;;1.45;100.00
11856;BME280;5987;53.140;8.904;2024-03-07T05:45:57;104948.94;;;1.46;100.00
11856;BME280;5987;53.140;8.904;2024-03-07T05:49:03;104937.09;;;1.50;100.00
11856;BME280;5987;53.140;8.904;2024-03-07T05:52:07;104931.91;;;1.50;100.00
11856;BME280;5987;53.140;8.904;2024-03-07T05:55:11;104927.03;;;1.54;100.00
11856;BME280;5987;53.140;8.904;2024-03-07T05:58:16;104921.47;;;1.62;100.00
11856;BME280;5987;53.140;8.904;2024-03-07T06:01:21;104913.69;;;1.62;100.00
11856;BME280;5987;53.140;8.904;2024-03-07T06:04:27;104917.59;;;1.68;100.00
11856;BME280;5987;53.140;8.904;2024-03-07T06:07:31;104908.25;;;1.70;100.00
11856;BME280;5987;53.140;8.904;2024-03-07T06:10:35;104903.34;;;1.75;100.00
11856;BME280;5987;53.140;8.904;2024-03-07T06:13:40;104906.34;;;1.81;100.00
11856;BME280;5987;53.140;8.904;2024-03-07T06:16:44;104890.19;;;1.85;100.00
11856;BME280;5987;53.140;8.904;2024-03-07T06:19:48;104886.41;;;1.94;100.00
11856;BME280;5987;53.140;8.904;2024-03-07T06:22:52;104883.22;;;1.98;100.00
11856;BME280;5987;53.140;8.904;2024-03-07T06:25:56;104863.50;;;1.86;100.00
11856;BME280;5987;53.140;8.904;2024-03-07T06:29:03;104867.84;;;2.01;100.00
11856;BME280;5987;53.140;8.904;2024-03-07T06:32:08;104860.50;;;2.07;100.00
11856;BME280;5987;53.140;8.904;2024-03-07T06:35:13;104849.72;;;2.14;100.00
11856;BME280;5987;53.140;8.904;2024-03-07T06:38:18;104835.13;;;2.16;100.00
11856;BME280;5987;53.140;8.904;2024-03-07T06:41:24;104825.16;;;2.22;100.00
11856;BME280;5987;53.140;8.904;2024-03-07T06:44:29;104813.28;;;2.26;100.00
11856;BME280;5987;53.140;8.904;2024-03-07T06:47:33;104801.31;;;2.28;100.00
11856;BME280;5987;53.140;8.904;2024-03-07T06:50:37;104792.41;;;2.38;100.00
11856;BME280;5987;53.140;8.904;2024-03-07T06:53:41;104774.63;;;2.44;100.00
11856;BME280;5987;53.140;8.904;2024-03-07T06:56:45;104756.38;;;2.43;100.00
11856;BME280;5987;53.140;8.904;2024-03-07T06:59:50;104738.91;;;2.40;100.00
11856;BME280;5987;53.140;8.904;2024-03-07T07:02:54;104724.81;;;2.50;100.00
11856;BME280;5987;53.140;8.904;2024-03-07T07:05:58;104702.47;;;2.52;100.00
11856;BME280;5987;53.140;8.904;2024-03-07T07:09:03;104679.19;;;2.53;100.00
11856;BME280;5987;53.140;8.904;2024-03-07T07:12:08;104653.44;;;2.56;100.00
11856;BME280;5987;53.140;8.904;2024-03-07T07:15:30;104621.41;;;2.56;100.00
11856;BME280;5987;53.140;8.904;2024-03-07T07:18:34;104601.88;;;2.63;100.00
11856;BME280;5987;53.140;8.904;2024-03-07T07:21:39;104583.81;;;2.64;100.00
11856;BME280;5987;53.140;8.904;2024-03-07T07:24:44;104562.34;;;2.67;100.00
11856;BME280;5987;53.140;8.904;2024-03-07T07:27:50;104530.31;;;2.66;100.00
11856;BME280;5987;53.140;8.904;2024-03-07T07:30:56;104516.00;;;2.73;100.00
11856;BME280;5987;53.140;8.904;2024-03-07T07:34:00;104500.06;;;2.67;100.00
11856;BME280;5987;53.140;8.904;2024-03-07T07:37:06;104467.50;;;2.72;100.00
11856;BME280;5987;53.140;8.904;2024-03-07T07:40:15;104450.28;;;2.74;100.00
11856;BME280;5987;53.140;8.904;2024-03-07T07:43:20;104433.91;;;2.75;100.00
11856;BME280;5987;53.140;8.904;2024-03-07T07:46:40;104426.44;;;2.81;100.00
11856;BME280;5987;53.140;8.904;2024-03-07T07:49:44;104415.69;;;2.90;100.00
11856;BME280;5987;53.140;8.904;2024-03-07T07:52:49;104393.84;;;2.86;100.00
11856;BME280;5987;53.140;8.904;2024-03-07T07:55:53;104386.50;;;2.94;100.00
11856;BME280;5987;53.140;8.904;2024-03-07T07:58:57;104375.34;;;2.97;100.00
11856;BME280;5987;53.140;8.904;2024-03-07T08:02:02;104371.81;;;2.95;100.00
11856;BME280;5987;53.140;8.904;2024-03-07T08:05:08;104359.88;;;2.98;100.00
11856;BME280;5987;53.140;8.904;2024-03-07T08:08:13;104356.78;;;3.05;100.00
11856;BME280;5987;53.140;8.904;2024-03-07T08:11:19;104342.25;;;3.09;100.00
11856;BME280;5987;53.140;8.904;2024-03-07T08:14:23;104336.88;;;3.22;100.00
11856;BME280;5987;53.140;8.904;2024-03-07T08:17:32;104331.53;;;3.37;100.00
11856;BME280;5987;53.140;8.904;2024-03-07T08:20:37;104326.00;;;3.48;100.00
11856;BME280;5987;53.140;8.904;2024-03-07T08:23:42;104292.56;;;3.37;100.00
11856;BME280;5987;53.140;8.904;2024-03-07T08:26:46;104250.81;;;3.33;100.00
11856;BME280;5987;53.140;8.904;2024-03-07T08:29:50;104219.25;;;3.43;100.00
11856;BME280;5987;53.140;8.904;2024-03-07T08:32:56;104167.47;;;3.46;100.00
11856;BME280;5987;53.140;8.904;2024-03-07T08:36:01;104105.38;;;3.33;100.00
11856;BME280;5987;53.140;8.904;2024-03-07T08:39:05;104060.41;;;3.34;100.00
11856;BME280;5987;53.140;8.904;2024-03-07T08:42:13;104014.72;;;3.39;100.00
11856;BME280;5987;53.140;8.904;2024-03-07T08:45:19;103967.03;;;3.37;100.00
11856;BME280;5987;53.140;8.904;2024-03-07T08:48:25;103946.25;;;3.37;100.00
11856;BME280;5987;53.140;8.904;2024-03-07T08:51:29;103907.84;;;3.30;100.00
11856;BME280;5987;53.140;8.904;2024-03-07T08:54:33;103891.56;;;3.53;100.00
11856;BME280;5987;53.140;8.904;2024-03-07T08:57:37;103851.69;;;3.53;100.00
11856;BME280;5987;53.140;8.904;2024-03-07T09:00:41;103825.72;;;3.75;100.00
11856;BME280;5987;53.140;8.904;2024-03-07T09:03:48;103776.78;;;3.64;100.00
11856;BME280;5987;53.140;8.904;2024-03-07T09:06:52;103738.03;;;3.70;100.00
11856;BME280;5987;53.140;8.904;2024-03-07T09:09:56;103704.41;;;3.73;100.00
11856;BME280;5987;53.140;8.904;2024-03-07T09:13:00;103665.16;;;3.67;100.00
11856;BME280;5987;53.140;8.904;2024-03-07T09:16:05;103620.63;;;3.56;100.00
11856;BME280;5987;53.140;8.904;2024-03-07T09:19:11;103582.97;;;3.69;100.00
11856;BME280;5987;53.140;8.904;2024-03-07T09:22:16;103540.00;;;3.54;100.00
11856;BME280;5987;53.140;8.904;2024-03-07T09:25:20;103517.34;;;3.74;100.00
11856;BME280;5987;53.140;8.904;2024-03-07T09:28:25;103474.56;;;3.65;100.00
11856;BME280;5987;53.140;8.904;2024-03-07T09:31:29;103457.53;;;3.73;100.00
11856;BME280;5987;53.140;8.904;2024-03-07T09:34:35;103420.63;;;3.57;100.00
11856;BME280;5987;53.140;8.904;2024-03-07T09:37:40;103388.63;;;3.58;100.00
11856;BME280;5987;53.140;8.904;2024-03-07T09:40:47;103353.47;;;3.70;100.00
11856;BME280;5987;53.140;8.904;2024-03-07T09:43:52;103333.31;;;3.88;100.00
11856;BME280;5987;53.140;8.904;2024-03-07T09:46:59;103304.25;;;3.73;100.00
11856;BME280;5987;53.140;8.904;2024-03-07T09:50:07;103284.22;;;3.70;100.00
11856;BME280;5987;53.140;8.904;2024-03-07T09:53:11;103263.56;;;3.75;100.00
11856;BME280;5987;53.140;8.904;2024-03-07T09:56:20;103247.03;;;3.71;100.00
11856;BME280;5987;53.140;8.904;2024-03-07T09:59:25;103226.13;;;3.68;100.00
11856;BME280;5987;53.140;8.904;2024-03-07T10:02:36;103225.81;;;3.86;100.00
11856;BME280;5987;53.140;8.904;2024-03-07T10:05:45;103200.88;;;3.35;100.00
11856;BME280;5987;53.140;8.904;2024-03-07T10:08:50;103201.44;;;3.54;100.00
11856;BME280;5987;53.140;8.904;2024-03-07T10:11:58;103200.97;;;3.66;100.00
11856;BME280;5987;53.140;8.904;2024-03-07T10:15:04;103185.94;;;3.57;100.00
11856;BME280;5987;53.140;8.904;2024-03-07T10:18:09;103175.97;;;3.71;100.00
11856;BME280;5987;53.140;8.904;2024-03-07T10:21:15;103161.09;;;3.65;100.00
11856;BME280;5987;53.140;8.904;2024-03-07T10:24:24;103149.38;;;3.80;100.00
11856;BME280;5987;53.140;8.904;2024-03-07T10:27:29;103122.44;;;3.76;100.00
11856;BME280;5987;53.140;8.904;2024-03-07T10:30:40;103084.34;;;3.46;100.00
11856;BME280;5987;53.140;8.904;2024-03-07T10:33:46;103052.06;;;3.36;100.00
11856;BME280;5987;53.140;8.904;2024-03-07T10:36:53;103050.41;;;3.70;100.00
11856;BME280;5987;53.140;8.904;2024-03-07T10:39:56;103018.31;;;3.70;100.00
11856;BME280;5987;53.140;8.904;2024-03-07T10:43:01;102994.38;;;3.80;100.00
11856;BME280;5987;53.140;8.904;2024-03-07T10:46:12;102981.72;;;3.60;100.00
11856;BME280;5987;53.140;8.904;2024-03-07T10:49:17;102971.44;;;3.99;100.00
11856;BME280;5987;53.140;8.904;2024-03-07T10:52:34;102950.03;;;3.74;100.00
11856;BME280;5987;53.140;8.904;2024-03-07T10:55:56;102937.66;;;3.99;100.00
11856;BME280;5987;53.140;8.904;2024-03-07T10:59:15;102933.72;;;4.16;100.00
11856;BME280;5987;53.140;8.904;2024-03-07T11:02:32;102906.47;;;3.99;100.00
11856;BME280;5987;53.140;8.904;2024-03-07T11:05:38;102908.69;;;3.83;100.00
11856;BME280;5987;53.140;8.904;2024-03-07T11:08:44;102906.84;;;3.79;100.00
11856;BME280;5987;53.140;8.904;2024-03-07T11:11:49;102919.00;;;3.80;100.00
11856;BME280;5987;53.140;8.904;2024-03-07T11:14:53;102929.41;;;3.80;100.00
11856;BME280;5987;53.140;8.904;2024-03-07T11:17:59;102947.28;;;3.36;100.00
11856;BME280;5987;53.140;8.904;2024-03-07T11:21:04;102970.44;;;3.60;100.00
11856;BME280;5987;53.140;8.904;2024-03-07T11:24:23;102986.28;;;3.37;100.00
11856;BME280;5987;53.140;8.904;2024-03-07T11:27:28;102987.88;;;3.32;100.00
11856;BME280;5987;53.140;8.904;2024-03-07T11:30:32;102995.47;;;3.26;100.00
11856;BME280;5987;53.140;8.904;2024-03-07T11:33:38;103001.84;;;3.37;100.00
11856;BME280;5987;53.140;8.904;2024-03-07T11:36:45;103007.69;;;3.60;100.00
11856;BME280;5987;53.140;8.904;2024-03-07T11:39:51;103009.72;;;3.72;100.00
11856;BME280;5987;53.140;8.904;2024-03-07T11:43:00;103000.97;;;3.67;100.00
11856;BME280;5987;53.140;8.904;2024-03-07T11:46:08;102993.81;;;3.60;100.00
11856;BME280;5987;53.140;8.904;2024-03-07T11:49:14;102984.69;;;3.42;100.00
11856;BME280;5987;53.140;8.904;2024-03-07T11:52:18;102989.75;;;3.70;100.00
11856;BME280;5987;53.140;8.904;2024-03-07T11:55:24;102989.53;;;3.60;100.00
11856;BME280;5987;53.140;8.904;2024-03-07T11:58:31;102978.81;;;3.50;100.00
11856;BME280;5987;53.140;8.904;2024-03-07T12:01:35;102983.81;;;3.42;100.00
11856;BME280;5987;53.140;8.904;2024-03-07T12:04:39;102993.81;;;3.60;100.00
11856;BME280;5987;53.140;8.904;2024-03-07T12:07:44;102985.91;;;3.55;100.00
11856;BME280;5987;53.140;8.904;2024-03-07T12:10:49;102982.28;;;3.82;100.00
11856;BME280;5987;53.140;8.904;2024-03-07T12:13:56;102973.91;;;3.92;100.00
11856;BME280;5987;53.140;8.904;2024-03-07T12:17:02;102964.66;;;4.04;100.00
11856;BME280;5987;53.140;8.904;2024-03-07T12:20:08;102949.94;;;4.04;100.00
11856;BME280;5987;53.140;8.904;2024-03-07T12:23:27;102946.47;;;4.42;100.00
11856;BME280;5987;53.140;8.904;2024-03-07T12:26:32;102920.09;;;4.25;100.00
11856;BME280;5987;53.140;8.904;2024-03-07T12:29:37;102902.63;;;3.83;100.00
11856;BME280;5987;53.140;8.904;2024-03-07T12:32:48;102912.34;;;3.91;100.00
11856;BME280;5987;53.140;8.904;2024-03-07T12:35:54;102907.31;;;3.98;100.00
11856;BME280;5987;53.140;8.904;2024-03-07T12:39:03;102900.63;;;4.09;100.00
11856;BME280;5987;53.140;8.904;2024-03-07T12:42:24;102901.41;;;4.05;100.00
11856;BME280;5987;53.140;8.904;2024-03-07T12:45:29;102896.16;;;4.03;100.00
11856;BME280;5987;53.140;8.904;2024-03-07T12:48:35;102899.09;;;4.17;100.00
11856;BME280;5987;53.140;8.904;2024-03-07T12:51:41;102900.78;;;4.15;100.00
11856;BME280;5987;53.140;8.904;2024-03-07T12:54:45;102895.56;;;4.14;100.00
11856;BME280;5987;53.140;8.904;2024-03-07T12:57:52;102895.59;;;4.15;100.00
11856;BME280;5987;53.140;8.904;2024-03-07T13:00:57;102892.34;;;4.25;100.00
11856;BME280;5987;53.140;8.904;2024-03-07T13:04:02;102882.03;;;4.28;100.00
11856;BME280;5987;53.140;8.904;2024-03-07T13:07:07;102880.91;;;4.17;100.00
11856;BME280;5987;53.140;8.904;2024-03-07T13:10:11;102864.88;;;3.99;100.00
11856;BME280;5987;53.140;8.904;2024-03-07T13:13:18;102872.69;;;3.99;100.00
11856;BME280;5987;53.140;8.904;2024-03-07T13:16:23;102876.53;;;4.16;100.00
11856;BME280;5987;53.140;8.904;2024-03-07T13:19:33;102866.00;;;4.10;100.00
11856;BME280;5987;53.140;8.904;2024-03-07T13:22:40;102870.00;;;3.95;100.00
11856;BME280;5987;53.140;8.904;2024-03-07T13:25:46;102876.53;;;4.16;100.00
11856;BME280;5987;53.140;8.904;2024-03-07T13:28:53;102868.47;;;4.04;100.00
11856;BME280;5987;53.140;8.904;2024-03-07T13:31:57;102870.06;;;3.99;100.00
11856;BME280;5987;53.140;8.904;2024-03-07T13:35:02;102870.88;;;3.96;100.00
11856;BME280;5987;53.140;8.904;2024-03-07T13:38:07;102866.31;;;3.86;100.00
11856;BME280;5987;53.140;8.904;2024-03-07T13:41:11;102885.75;;;4.02;100.00
11856;BME280;5987;53.140;8.904;2024-03-07T13:44:17;102881.22;;;3.93;100.00
11856;BME280;5987;53.140;8.904;2024-03-07T13:47:22;102872.38;;;3.86;100.00
11856;BME280;5987;53.140;8.904;2024-03-07T13:50:28;102862.78;;;3.84;100.00
11856;BME280;5987;53.140;8.904;2024-03-07T13:53:54;102867.94;;;3.82;100.00
11856;BME280;5987;53.140;8.904;2024-03-07T13:57:30;102869.00;;;3.90;100.00
11856;BME280;5987;53.140;8.904;2024-03-07T14:00:50;102875.44;;;4.06;100.00
11856;BME280;5987;53.140;8.904;2024-03-07T14:04:49;102863.88;;;3.93;100.00
11856;BME280;5987;53.140;8.904;2024-03-07T14:09:35;102856.78;;;3.86;100.00
11856;BME280;5987;53.140;8.904;2024-03-07T14:13:06;102855.84;;;3.83;100.00
11856;BME280;5987;53.140;8.904;2024-03-07T14:16:50;102859.00;;;3.71;100.00
11856;BME280;5987;53.140;8.904;2024-03-07T14:20:45;102860.03;;;3.76;100.00
11856;BME280;5987;53.140;8.904;2024-03-07T14:28:15;102857.09;;;3.99;100.00
11856;BME280;5987;53.140;8.904;2024-03-07T14:31:22;102843.25;;;4.00;100.00
11856;BME280;5987;53.140;8.904;2024-03-07T14:34:47;102830.88;;;3.89;100.00
11856;BME280;5987;53.140;8.904;2024-03-07T14:37:55;102808.84;;;3.73;100.00
11856;BME280;5987;53.140;8.904;2024-03-07T14:41:05;102815.38;;;3.92;100.00
11856;BME280;5987;53.140;8.904;2024-03-07T14:44:10;102801.78;;;4.06;100.00
11856;BME280;5987;53.140;8.904;2024-03-07T14:47:19;102787.63;;;3.91;100.00
11856;BME280;5987;53.140;8.904;2024-03-07T14:50:27;102772.97;;;3.97;100.00
11856;BME280;5987;53.140;8.904;2024-03-07T14:53:32;102772.38;;;4.07;100.00
11856;BME280;5987;53.140;8.904;2024-03-07T14:56:37;102762.66;;;3.98;100.00
11856;BME280;5987;53.140;8.904;2024-03-07T14:59:41;102755.03;;;4.07;100.00
11856;BME280;5987;53.140;8.904;2024-03-07T15:02:49;102743.03;;;4.14;100.00
11856;BME280;5987;53.140;8.904;2024-03-07T15:05:53;102710.91;;;4.10;100.00
11856;BME280;5987;53.140;8.904;2024-03-07T15:08:57;102716.06;;;4.09;100.00
11856;BME280;5987;53.140;8.904;2024-03-07T15:12:02;102712.59;;;4.08;100.00
11856;BME280;5987;53.140;8.904;2024-03-07T15:15:26;102716.31;;;4.21;100.00
11856;BME280;5987;53.140;8.904;2024-03-07T15:18:34;102710.09;;;4.13;100.00
11856;BME280;5987;53.140;8.904;2024-03-07T15:21:39;102705.06;;;4.21;100.00
11856;BME280;5987;53.140;8.904;2024-03-07T15:24:43;102703.31;;;4.21;100.00
11856;BME280;5987;53.140;8.904;2024-03-07T15:27:47;102705.97;;;4.24;100.00
11856;BME280;5987;53.140;8.904;2024-03-07T15:30:52;102685.19;;;4.24;100.00
11856;BME280;5987;53.140;8.904;2024-03-07T15:33:57;102685.22;;;4.26;100.00
11856;BME280;5987;53.140;8.904;2024-03-07T15:37:01;102674.69;;;4.20;100.00
11856;BME280;5987;53.140;8.904;2024-03-07T15:40:07;102675.94;;;4.39;100.00
11856;BME280;5987;53.140;8.904;2024-03-07T15:43:14;102674.22;;;4.39;100.00
11856;BME280;5987;53.140;8.904;2024-03-07T15:46:18;102675.75;;;4.29;100.00
11856;BME280;5987;53.140;8.904;2024-03-07T15:49:23;102657.75;;;4.40;100.00
11856;BME280;5987;53.140;8.904;2024-03-07T15:52:28;102641.22;;;4.38;100.00
11856;BME280;5987;53.140;8.904;2024-03-07T15:55:34;102616.97;;;4.38;100.00
11856;BME280;5987;53.140;8.904;2024-03-07T15:58:38;102604.81;;;4.37;100.00
11856;BME280;5987;53.140;8.904;2024-03-07T16:01:42;102593.63;;;4.42;100.00
11856;BME280;5987;53.140;8.904;2024-03-07T16:04:48;102586.78;;;4.47;100.00
11856;BME280;5987;53.140;8.904;2024-03-07T16:07:54;102568.44;;;4.40;100.00
11856;BME280;5987;53.140;8.904;2024-03-07T16:10:58;102552.75;;;4.34;100.00
11856;BME280;5987;53.140;8.904;2024-03-07T16:14:02;102549.31;;;4.35;100.00
11856;BME280;5987;53.140;8.904;2024-03-07T16:17:07;102542.38;;;4.37;100.00
11856;BME280;5987;53.140;8.904;2024-03-07T16:20:13;102542.19;;;4.24;100.00
11856;BME280;5987;53.140;8.904;2024-03-07T16:23:17;102548.19;;;4.22;100.00
11856;BME280;5987;53.140;8.904;2024-03-07T16:26:21;102551.66;;;4.19;100.00
11856;BME280;5987;53.140;8.904;2024-03-07T16:29:24;102561.97;;;4.18;100.00
11856;BME280;5987;53.140;8.904;2024-03-07T16:32:28;102565.25;;;4.06;100.00